Terminal Aerodrome Forecast
Issued by NWS

Home | Current Version | Previous Version | Text Only | Print | Product List | Glossary On
Versions: 1 2 3 4 5 6 7 8 9 10 11 12 13
576
FTUS41 KPHI 050550
TAFPNE
TAF
KPNE 050550Z 0506/0606 VRB02KT P6SM OVC060
     FM050700 VRB03KT 5SM -RA BR SCT015 OVC025
     FM051000 16005KT 3SM -RA BR OVC015
     FM051200 VRB04KT 3SM -DZ BR BKN009 OVC015
     FM051600 28009KT P6SM SCT015 BKN025
     FM051900 31008KT P6SM SCT040
     FM060000 32005KT P6SM SKC=

USA.gov is the U.S. government's official web portal to all federal, state and local government web resources and services.